createdAt,value
2019-04-22T00:02:20.685Z,100.00
2019-04-22T00:05:01.058Z,100.00
2019-04-22T00:07:43.236Z,100.00
2019-04-22T00:10:19.365Z,100.00
2019-04-22T00:12:47.246Z,100.00
2019-04-22T00:15:10.129Z,100.00
2019-04-22T00:17:55.077Z,100.00
2019-04-22T00:20:14.725Z,100.00
2019-04-22T00:22:44.858Z,100.00
2019-04-22T00:25:19.862Z,100.00
2019-04-22T00:32:59.336Z,100.00
2019-04-22T00:35:23.792Z,100.00
2019-04-22T00:38:07.755Z,100.00
2019-04-22T00:40:33.959Z,100.00
2019-04-22T00:42:58.343Z,100.00
2019-04-22T00:45:36.204Z,100.00
2019-04-22T00:48:09.088Z,100.00
2019-04-22T00:50:37.441Z,100.00
2019-04-22T00:53:09.011Z,100.00
2019-04-22T00:55:37.896Z,100.00
2019-04-22T00:58:08.300Z,100.00
2019-04-22T01:00:39.173Z,100.00
2019-04-22T01:03:10.961Z,100.00
2019-04-22T01:05:43.851Z,100.00
2019-04-22T01:08:17.754Z,100.00
2019-04-22T01:10:49.494Z,100.00
2019-04-22T01:13:12.423Z,100.00
2019-04-22T01:15:44.267Z,100.00
2019-04-22T01:18:11.190Z,100.00
2019-04-22T01:21:00.963Z,100.00
2019-04-22T01:23:12.955Z,100.00
2019-04-22T01:25:44.043Z,100.00
2019-04-22T01:28:06.406Z,100.00
2019-04-22T01:30:30.335Z,100.00
2019-04-22T01:32:57.922Z,100.00
2019-04-22T01:35:37.832Z,100.00
2019-04-22T01:38:07.843Z,100.00
2019-04-22T01:40:52.821Z,100.00
2019-04-22T01:43:25.106Z,100.00
2019-04-22T01:45:53.260Z,100.00
2019-04-22T01:48:19.612Z,100.00
2019-04-22T01:50:49.644Z,100.00
2019-04-22T01:53:19.655Z,100.00
2019-04-22T01:55:55.535Z,100.00
2019-04-22T01:58:18.367Z,100.00
2019-04-22T02:00:58.264Z,100.00
2019-04-22T02:03:25.962Z,100.00
2019-04-22T02:05:51.066Z,100.00
2019-04-22T02:08:31.264Z,100.00
2019-04-22T02:10:57.187Z,100.00
2019-04-22T02:13:28.769Z,100.00
2019-04-22T02:16:01.623Z,100.00
2019-04-22T02:18:36.266Z,100.00
2019-04-22T02:20:55.347Z,100.00
2019-04-22T02:28:39.899Z,100.00
2019-04-22T02:34:01.264Z,100.00
2019-04-22T02:36:22.586Z,100.00
2019-04-22T02:41:22.872Z,100.00
2019-04-22T02:51:16.898Z,100.00
2019-04-22T02:54:15.331Z,100.00
2019-04-22T03:01:27.515Z,100.00
2019-04-22T03:06:29.573Z,100.00
2019-04-22T03:08:46.143Z,100.00
2019-04-22T03:11:19.102Z,100.00
2019-04-22T03:21:18.638Z,100.00
2019-04-22T03:24:05.908Z,100.00
2019-04-22T03:26:27.447Z,100.00
2019-04-22T03:28:51.155Z,100.00
2019-04-22T03:31:53.699Z,100.00
2019-04-22T03:34:39.498Z,100.00
2019-04-22T03:39:28.230Z,100.00
2019-04-22T03:41:50.098Z,100.00
2019-04-22T03:44:23.475Z,100.00
2019-04-22T03:46:30.288Z,100.00
2019-04-22T03:49:09.387Z,100.00
2019-04-22T03:57:10.440Z,100.00
2019-04-22T03:59:09.885Z,100.00
2019-04-22T04:04:13.053Z,100.00
2019-04-22T04:06:43.248Z,100.00
2019-04-22T04:09:09.347Z,100.00
2019-04-22T04:11:43.299Z,100.00
2019-04-22T04:14:11.970Z,100.00
2019-04-22T04:16:39.159Z,100.00
2019-04-22T04:19:13.625Z,100.00
2019-04-22T04:24:29.549Z,100.00
2019-04-22T04:36:42.191Z,100.00
2019-04-22T04:39:05.513Z,100.00
2019-04-22T04:41:42.755Z,100.00
2019-04-22T04:46:45.080Z,100.00
2019-04-22T04:49:43.569Z,100.00
2019-04-22T04:51:37.746Z,100.00
2019-04-22T04:56:42.463Z,100.00
2019-04-22T05:01:44.568Z,100.00
2019-04-22T05:04:13.697Z,100.00
2019-04-22T05:06:51.546Z,100.00
2019-04-22T05:11:57.552Z,100.00
2019-04-22T05:14:17.529Z,100.00
2019-04-22T05:19:15.929Z,100.00
2019-04-22T05:21:48.560Z,100.00
2019-04-22T05:24:16.581Z,100.00
2019-04-22T05:29:12.826Z,100.00
2019-04-22T05:31:43.640Z,100.00
2019-04-22T05:34:19.473Z,100.00
2019-04-22T05:39:11.185Z,100.00
2019-04-22T05:41:43.160Z,100.00
2019-04-22T05:44:18.694Z,100.00
2019-04-22T05:46:40.806Z,100.00
2019-04-22T05:51:41.765Z,100.00
2019-04-22T05:54:14.579Z,100.00
2019-04-22T05:56:40.919Z,100.00
2019-04-22T05:59:17.660Z,100.00
2019-04-22T06:04:14.723Z,100.00
2019-04-22T06:06:46.967Z,100.00
2019-04-22T06:09:19.148Z,100.00
2019-04-22T06:11:42.819Z,97.15
2019-04-22T06:14:13.944Z,96.80
2019-04-22T06:16:53.212Z,99.16
2019-04-22T06:19:18.845Z,94.15
2019-04-22T06:21:50.145Z,100.00
2019-04-22T06:27:01.560Z,100.00
2019-04-22T06:29:36.560Z,100.00
2019-04-22T06:32:22.292Z,100.00
2019-04-22T06:34:30.775Z,100.00
2019-04-22T06:36:59.725Z,100.00
2019-04-22T06:39:34.117Z,100.00
2019-04-22T06:42:02.062Z,100.00
2019-04-22T06:44:29.611Z,100.00
2019-04-22T06:47:00.656Z,100.00
2019-04-22T06:49:30.106Z,98.54
2019-04-22T06:52:04.435Z,91.40
2019-04-22T06:54:32.508Z,90.44
2019-04-22T06:57:03.995Z,90.31
2019-04-22T06:59:31.164Z,92.03
2019-04-22T07:02:04.837Z,92.86
2019-04-22T07:04:34.433Z,90.09
2019-04-22T07:12:06.379Z,89.05
2019-04-22T07:14:36.375Z,89.41
2019-04-22T07:17:01.839Z,82.58
2019-04-22T07:19:37.181Z,84.81
2019-04-22T07:22:11.329Z,81.14
2019-04-22T07:27:10.532Z,82.78
2019-04-22T07:29:42.787Z,77.94
2019-04-22T07:32:07.844Z,75.42
2019-04-22T07:34:44.556Z,73.06
2019-04-22T07:37:23.062Z,74.06
2019-04-22T07:39:44.148Z,69.46
2019-04-22T07:42:13.495Z,69.19
2019-04-22T07:44:43.049Z,71.49
2019-04-22T07:49:43.836Z,65.44
2019-04-22T07:52:14.226Z,59.83
2019-04-22T07:54:41.667Z,64.86
2019-04-22T07:59:40.488Z,65.11
2019-04-22T08:02:16.070Z,66.15
2019-04-22T08:05:01.972Z,71.94
2019-04-22T08:07:30.364Z,68.85
2019-04-22T08:09:51.090Z,70.24
2019-04-22T08:12:12.018Z,71.70
2019-04-22T08:14:45.855Z,69.59
2019-04-22T08:17:41.519Z,67.99
2019-04-22T08:19:53.807Z,62.80
2019-04-22T08:22:17.050Z,64.63
2019-04-22T08:24:47.186Z,64.82
2019-04-22T08:27:15.254Z,56.11
2019-04-22T08:29:52.233Z,61.20
2019-04-22T08:32:21.775Z,61.96
2019-04-22T08:34:47.599Z,59.22
2019-04-22T08:37:42.262Z,53.71
2019-04-22T08:39:56.678Z,49.78
2019-04-22T08:42:29.519Z,51.18
2019-04-22T08:45:09.677Z,52.41
2019-04-22T08:47:29.214Z,52.22
2019-04-22T08:49:59.686Z,54.24
2019-04-22T08:52:22.286Z,54.44
2019-04-22T08:54:51.229Z,52.75
2019-04-22T08:57:30.262Z,54.36
2019-04-22T08:59:57.451Z,55.32
2019-04-22T09:02:26.023Z,52.70
2019-04-22T09:04:53.686Z,49.89
2019-04-22T09:07:30.304Z,50.67
2019-04-22T09:09:50.643Z,46.77
2019-04-22T09:12:37.039Z,46.12
2019-04-22T09:14:53.758Z,48.98
2019-04-22T09:17:41.317Z,44.86
2019-04-22T09:19:56.333Z,46.44
2019-04-22T09:22:21.862Z,51.40
2019-04-22T09:24:54.043Z,47.67
2019-04-22T09:27:33.169Z,49.85
2019-04-22T09:30:01.144Z,45.34
2019-04-22T09:32:26.939Z,41.49
2019-04-22T09:35:09.479Z,43.43
2019-04-22T09:40:04.614Z,43.37
2019-04-22T09:42:37.238Z,44.44
2019-04-22T09:44:59.193Z,43.74
2019-04-22T09:47:37.231Z,43.27
2019-04-22T09:50:03.775Z,39.40
2019-04-22T09:52:32.203Z,41.49
2019-04-22T09:55:06.135Z,42.18
2019-04-22T09:57:33.936Z,39.84
2019-04-22T10:00:02.822Z,37.90
2019-04-22T10:02:34.471Z,39.26
2019-04-22T10:05:07.896Z,38.19
2019-04-22T10:07:31.828Z,39.50
2019-04-22T10:10:14.352Z,35.12
2019-04-22T10:12:36.597Z,35.47
2019-04-22T10:15:19.538Z,38.01
2019-04-22T10:17:37.970Z,39.37
2019-04-22T10:20:07.116Z,38.69
2019-04-22T10:22:39.336Z,37.22
2019-04-22T10:25:11.899Z,37.00
2019-04-22T10:27:46.420Z,37.43
2019-04-22T10:32:38.145Z,35.57
2019-04-22T10:34:55.555Z,35.87
2019-04-22T10:37:23.431Z,35.61
2019-04-22T10:39:56.232Z,35.72
2019-04-22T10:42:23.055Z,30.84
2019-04-22T10:44:53.694Z,31.69
2019-04-22T10:47:22.387Z,31.97
2019-04-22T10:49:52.261Z,31.35
2019-04-22T10:52:21.634Z,28.75
2019-04-22T10:54:51.551Z,29.24
2019-04-22T10:57:20.307Z,30.30
2019-04-22T10:59:50.320Z,30.52
2019-04-22T11:02:19.267Z,28.61
2019-04-22T11:04:50.324Z,29.07
2019-04-22T11:07:25.224Z,28.69
2019-04-22T11:09:59.282Z,27.67
2019-04-22T11:12:24.724Z,27.35
2019-04-22T11:14:51.838Z,27.77
2019-04-22T11:17:21.757Z,27.06
2019-04-22T11:19:50.542Z,27.58
2019-04-22T11:22:23.023Z,28.38
2019-04-22T11:24:50.810Z,27.13
2019-04-22T11:27:21.080Z,27.91
2019-04-22T11:29:49.995Z,27.46
2019-04-22T11:32:20.159Z,26.06
2019-04-22T11:34:49.112Z,26.06
2019-04-22T11:37:18.548Z,25.80
2019-04-22T11:40:00.266Z,27.27
2019-04-22T11:42:18.273Z,26.46
2019-04-22T11:44:47.497Z,26.03
2019-04-22T11:47:17.161Z,24.91
2019-04-22T11:49:45.975Z,27.36
2019-04-22T11:52:16.709Z,26.01
2019-04-22T11:54:46.507Z,24.26
2019-04-22T11:57:16.985Z,24.42
2019-04-22T11:59:46.989Z,25.63
2019-04-22T12:02:19.231Z,25.14
2019-04-22T12:04:47.942Z,24.15
2019-04-22T12:07:17.206Z,25.79
2019-04-22T12:09:45.985Z,25.05
2019-04-22T12:12:15.972Z,24.96
2019-04-22T12:14:46.123Z,21.98
2019-04-22T12:17:15.998Z,24.19
2019-04-22T12:19:46.281Z,23.59
2019-04-22T12:22:15.422Z,24.98
2019-04-22T12:24:46.046Z,23.47
2019-04-22T12:27:17.388Z,20.88
2019-04-22T12:29:45.189Z,18.86
2019-04-22T12:32:17.775Z,20.33
2019-04-22T12:34:47.156Z,19.73
2019-04-22T12:37:27.401Z,21.27
2019-04-22T12:39:48.073Z,21.78
2019-04-22T12:42:17.484Z,21.51
2019-04-22T12:44:47.703Z,21.44
2019-04-22T12:47:17.811Z,21.60
2019-04-22T12:49:54.269Z,22.19
2019-04-22T12:52:29.203Z,21.82
2019-04-22T12:54:48.956Z,22.56
2019-04-22T12:57:18.814Z,22.32
2019-04-22T12:59:47.979Z,22.14
2019-04-22T13:02:16.618Z,23.01
2019-04-22T13:04:45.987Z,22.73
2019-04-22T13:07:15.735Z,23.37
2019-04-22T13:09:45.384Z,22.97
2019-04-22T13:12:15.210Z,23.54
2019-04-22T13:14:45.420Z,20.34
2019-04-22T13:17:15.715Z,21.00
2019-04-22T13:19:47.821Z,23.12
2019-04-22T13:22:16.857Z,23.88
2019-04-22T13:24:45.877Z,24.31
2019-04-22T13:27:15.027Z,23.08
2019-04-22T13:29:46.549Z,24.19
2019-04-22T13:32:14.269Z,23.53
2019-04-22T13:34:48.044Z,22.08
2019-04-22T13:37:14.705Z,22.32
2019-04-22T13:39:43.835Z,22.10
2019-04-22T13:42:19.311Z,22.90
2019-04-22T13:44:46.053Z,22.70
2019-04-22T13:47:35.009Z,23.36
2019-04-22T13:50:28.233Z,22.24
2019-04-22T13:53:00.662Z,23.34
2019-04-22T13:55:17.730Z,22.67
2019-04-22T13:57:40.155Z,23.48
2019-04-22T13:59:55.848Z,23.02
2019-04-22T14:02:37.829Z,23.53
2019-04-22T14:05:08.638Z,23.44
2019-04-22T14:07:38.839Z,22.73
2019-04-22T14:10:08.716Z,22.11
2019-04-22T14:12:39.022Z,22.83
2019-04-22T14:15:11.721Z,23.05
2019-04-22T14:17:41.038Z,22.63
2019-04-22T14:20:10.941Z,23.18
2019-04-22T14:22:40.816Z,22.18
2019-04-22T14:25:10.529Z,23.16
2019-04-22T14:27:48.599Z,23.14
2019-04-22T14:30:10.850Z,23.65
2019-04-22T14:32:39.888Z,24.35
2019-04-22T14:35:11.227Z,23.28
2019-04-22T14:37:40.335Z,24.52
2019-04-22T14:40:12.287Z,25.32
2019-04-22T14:43:04.108Z,25.76
2019-04-22T14:45:46.018Z,24.07
2019-04-22T14:48:07.280Z,24.37
2019-04-22T14:50:37.239Z,23.89
2019-04-22T14:53:03.681Z,24.15
2019-04-22T14:55:22.654Z,23.91
2019-04-22T14:57:46.838Z,25.21
2019-04-22T15:00:18.074Z,25.01
2019-04-22T15:02:47.928Z,23.97
2019-04-22T15:05:18.550Z,23.91
2019-04-22T15:07:47.726Z,24.98
2019-04-22T15:10:18.124Z,25.15
2019-04-22T15:12:50.231Z,25.65
2019-04-22T15:15:31.740Z,25.99
2019-04-22T15:18:03.057Z,24.62
2019-04-22T15:20:37.526Z,24.33
2019-04-22T15:23:06.742Z,24.39
2019-04-22T15:25:36.753Z,25.44
2019-04-22T15:28:05.801Z,24.99
2019-04-22T15:30:35.219Z,24.10
2019-04-22T15:33:05.410Z,24.46
2019-04-22T15:35:35.458Z,24.52
2019-04-22T15:38:04.810Z,26.24
2019-04-22T15:40:34.590Z,26.00
2019-04-22T15:43:04.734Z,25.33
2019-04-22T15:45:34.927Z,24.85
2019-04-22T15:48:04.166Z,24.71
2019-04-22T15:50:33.177Z,25.58
2019-04-22T15:53:03.004Z,26.75
2019-04-22T15:55:32.623Z,27.17
2019-04-22T15:58:01.867Z,27.70
2019-04-22T16:00:41.488Z,27.46
2019-04-22T16:03:04.257Z,27.75
2019-04-22T16:05:32.230Z,27.80
2019-04-22T16:08:01.387Z,29.02
2019-04-22T16:10:30.393Z,28.87
2019-04-22T16:13:07.328Z,29.77
2019-04-22T16:15:30.730Z,29.96
2019-04-22T16:18:01.651Z,30.99
2019-04-22T16:20:30.141Z,30.95
2019-04-22T16:23:18.762Z,30.79
2019-04-22T16:25:56.647Z,31.90
2019-04-22T16:28:25.325Z,31.78
2019-04-22T16:30:55.337Z,32.27
2019-04-22T16:33:25.668Z,34.67
2019-04-22T16:35:55.065Z,33.40
2019-04-22T16:38:24.769Z,33.81
2019-04-22T16:40:54.840Z,33.11
2019-04-22T16:43:24.715Z,34.69
2019-04-22T16:45:53.884Z,34.69
2019-04-22T16:48:22.515Z,34.71
2019-04-22T16:50:52.715Z,35.04
2019-04-22T16:53:23.218Z,34.99
2019-04-22T16:55:52.964Z,34.63
2019-04-22T16:58:23.153Z,36.50
2019-04-22T17:00:54.715Z,36.80
2019-04-22T17:03:28.915Z,37.24
2019-04-22T17:06:11.905Z,37.38
2019-04-22T17:08:40.747Z,37.34
2019-04-22T17:11:13.584Z,37.63
2019-04-22T17:13:44.175Z,36.79
2019-04-22T17:16:15.675Z,37.62
2019-04-22T17:18:46.817Z,37.98
2019-04-22T17:21:15.299Z,38.18
2019-04-22T17:23:45.555Z,37.38
2019-04-22T17:26:14.879Z,38.17
2019-04-22T17:28:43.855Z,39.16
2019-04-22T17:31:13.121Z,40.02
2019-04-22T17:33:41.927Z,38.78
2019-04-22T17:36:12.003Z,38.13
2019-04-22T17:38:51.997Z,39.02
2019-04-22T17:41:27.065Z,39.94
2019-04-22T17:44:04.842Z,40.93
2019-04-22T17:46:32.978Z,41.53
2019-04-22T17:49:10.451Z,41.69
2019-04-22T17:52:02.858Z,39.83
2019-04-22T17:54:11.626Z,42.50
2019-04-22T17:56:43.373Z,44.28
2019-04-22T17:59:15.614Z,44.93
2019-04-22T18:01:39.853Z,41.63
2019-04-22T18:03:56.629Z,41.74
2019-04-22T18:06:52.794Z,41.61
2019-04-22T18:09:14.632Z,42.86
2019-04-22T18:11:51.245Z,44.73
2019-04-22T18:14:29.928Z,47.40
2019-04-22T18:16:47.652Z,48.71
2019-04-22T18:19:15.485Z,51.05
2019-04-22T18:21:41.250Z,52.03
2019-04-22T18:24:07.929Z,53.43
2019-04-22T18:26:49.789Z,54.48
2019-04-22T18:29:25.481Z,56.31
2019-04-22T18:31:43.260Z,54.28
2019-04-22T18:34:19.075Z,53.61
2019-04-22T18:36:46.616Z,55.62
2019-04-22T18:39:28.542Z,58.55
2019-04-22T18:41:51.962Z,57.09
2019-04-22T18:44:29.592Z,56.34
2019-04-22T18:46:55.068Z,57.59
2019-04-22T18:49:26.762Z,56.86
2019-04-22T18:52:00.800Z,56.30
2019-04-22T18:54:31.055Z,56.07
2019-04-22T18:57:02.669Z,60.65
2019-04-22T18:59:22.567Z,60.10
2019-04-22T19:01:48.109Z,58.56
2019-04-22T19:04:26.783Z,57.46
2019-04-22T19:07:12.133Z,61.75
2019-04-22T19:09:48.324Z,61.12
2019-04-22T19:12:24.148Z,60.60
2019-04-22T19:14:50.641Z,60.21
2019-04-22T19:17:27.425Z,60.60
2019-04-22T19:19:49.991Z,61.52
2019-04-22T19:22:16.251Z,65.82
2019-04-22T19:24:45.874Z,64.86
2019-04-22T19:27:15.720Z,64.83
2019-04-22T19:29:54.096Z,65.95
2019-04-22T19:32:14.789Z,64.70
2019-04-22T19:34:47.838Z,68.33
2019-04-22T19:37:20.672Z,66.87
2019-04-22T19:40:00.626Z,67.30
2019-04-22T19:42:24.890Z,69.74
2019-04-22T19:44:53.228Z,66.97
2019-04-22T19:47:38.806Z,69.45
2019-04-22T19:49:58.433Z,67.81
2019-04-22T19:52:24.382Z,66.86
2019-04-22T19:54:54.985Z,66.58
2019-04-22T19:57:22.590Z,67.84
2019-04-22T19:59:50.831Z,72.05
2019-04-22T20:02:28.902Z,73.30
2019-04-22T20:05:06.439Z,70.66
2019-04-22T20:07:48.715Z,71.25
2019-04-22T20:10:19.573Z,67.42
2019-04-22T20:12:42.479Z,68.58
2019-04-22T20:15:14.314Z,69.31
2019-04-22T20:18:07.583Z,67.80
2019-04-22T20:20:22.748Z,69.51
2019-04-22T20:22:45.153Z,69.76
2019-04-22T20:25:09.826Z,73.61
2019-04-22T20:27:47.545Z,71.57
2019-04-22T20:30:23.549Z,69.29
2019-04-22T20:32:47.667Z,66.70
2019-04-22T20:35:20.995Z,71.03
2019-04-22T20:37:52.655Z,72.15
2019-04-22T20:40:25.298Z,73.84
2019-04-22T20:42:56.771Z,71.96
2019-04-22T20:45:24.745Z,73.41
2019-04-22T20:47:45.502Z,76.09
2019-04-22T20:50:24.941Z,76.00
2019-04-22T20:52:59.650Z,78.33
2019-04-22T20:55:23.926Z,76.76
2019-04-22T20:57:59.017Z,77.28
2019-04-22T21:00:23.808Z,75.47
2019-04-22T21:02:48.816Z,79.83
2019-04-22T21:05:26.494Z,80.12
2019-04-22T21:08:06.326Z,76.84
2019-04-22T21:10:27.670Z,74.52
2019-04-22T21:13:01.254Z,78.11
2019-04-22T21:15:42.442Z,76.94
2019-04-22T21:18:08.251Z,78.04
2019-04-22T21:20:43.195Z,78.60
2019-04-22T21:23:05.203Z,77.83
2019-04-22T21:25:31.916Z,76.19
2019-04-22T21:28:11.094Z,77.61
2019-04-22T21:30:37.249Z,77.98
2019-04-22T21:33:07.690Z,72.96
2019-04-22T21:35:53.709Z,74.51
2019-04-22T21:38:14.870Z,74.70
2019-04-22T21:40:39.727Z,75.33
2019-04-22T21:43:12.146Z,75.97
2019-04-22T21:45:39.078Z,76.88
2019-04-22T21:48:23.026Z,75.17
2019-04-22T21:50:54.279Z,76.74
2019-04-22T21:53:18.034Z,78.30
2019-04-22T21:55:50.429Z,77.97
2019-04-22T21:58:27.719Z,76.77
2019-04-22T22:01:14.576Z,76.73
2019-04-22T22:03:38.658Z,77.18
2019-04-22T22:05:58.841Z,77.95
2019-04-22T22:08:40.286Z,78.74
2019-04-22T22:11:11.319Z,77.03
2019-04-22T22:13:43.790Z,75.75
2019-04-22T22:16:07.741Z,75.88
2019-04-22T22:18:29.040Z,77.96
2019-04-22T22:21:25.770Z,77.24
2019-04-22T22:23:45.752Z,79.03
2019-04-22T22:26:06.789Z,82.45
2019-04-22T22:28:54.881Z,82.36
2019-04-22T22:31:19.824Z,80.95
2019-04-22T22:33:41.804Z,79.32
2019-04-22T22:36:05.012Z,77.36
2019-04-22T22:38:38.889Z,77.82
2019-04-22T22:40:51.998Z,77.09
2019-04-22T22:43:29.739Z,79.50
2019-04-22T22:46:06.276Z,79.36
2019-04-22T22:48:43.373Z,79.35
2019-04-22T22:51:15.170Z,81.21
2019-04-22T22:53:47.844Z,81.64
2019-04-22T22:56:14.216Z,82.69
2019-04-22T22:58:50.602Z,82.52
2019-04-22T23:01:21.241Z,81.39
2019-04-22T23:04:06.488Z,82.05
2019-04-22T23:06:20.651Z,81.62
2019-04-22T23:08:53.999Z,84.46
2019-04-22T23:11:26.823Z,87.36
2019-04-22T23:13:49.748Z,85.81
2019-04-22T23:16:10.088Z,83.91
2019-04-22T23:18:28.051Z,85.59
2019-04-22T23:20:57.787Z,84.50
2019-04-22T23:23:43.945Z,82.71
2019-04-22T23:26:40.991Z,81.57
2019-04-22T23:29:06.186Z,80.73
2019-04-22T23:31:36.843Z,79.33
2019-04-22T23:34:11.373Z,80.01
2019-04-22T23:36:57.623Z,82.08
2019-04-22T23:39:43.534Z,87.14
2019-04-22T23:42:15.914Z,86.76
2019-04-22T23:44:39.729Z,84.38
2019-04-22T23:47:06.098Z,83.88
2019-04-22T23:49:32.491Z,86.01
2019-04-22T23:52:13.309Z,89.85
2019-04-22T23:54:51.012Z,88.76
2019-04-22T23:57:24.083Z,90.36
2019-04-22T23:59:57.114Z,90.09
